createdAt,value
2019-02-09T00:02:03.650Z,2.96
2019-02-09T00:04:40.778Z,2.96
2019-02-09T00:07:17.978Z,2.98
2019-02-09T00:09:53.382Z,3.01
2019-02-09T00:12:30.822Z,3.05
2019-02-09T00:15:09.781Z,3.03
2019-02-09T00:17:46.651Z,3.08
2019-02-09T00:20:22.974Z,3.07
2019-02-09T00:23:00.551Z,3.07
2019-02-09T00:25:36.982Z,3.09
2019-02-09T00:28:14.422Z,3.10
2019-02-09T00:30:51.216Z,3.11
2019-02-09T00:33:27.415Z,3.11
2019-02-09T00:36:04.410Z,3.09
2019-02-09T00:38:42.203Z,3.09
2019-02-09T00:41:16.916Z,3.10
2019-02-09T00:43:53.967Z,3.09
2019-02-09T00:46:30.007Z,3.07
2019-02-09T00:49:06.495Z,3.05
2019-02-09T00:51:45.369Z,3.06
2019-02-09T00:54:20.789Z,3.03
2019-02-09T00:56:57.283Z,3.03
2019-02-09T00:59:32.066Z,3.04
2019-02-09T01:02:08.524Z,3.06
2019-02-09T01:04:44.445Z,3.06
2019-02-09T01:07:19.917Z,3.08
2019-02-09T01:09:58.500Z,3.11
2019-02-09T01:12:34.479Z,3.14
2019-02-09T01:15:14.389Z,3.14
2019-02-09T01:17:51.882Z,3.13
2019-02-09T01:20:32.221Z,3.12
2019-02-09T01:23:08.950Z,3.14
2019-02-09T01:25:46.869Z,3.14
2019-02-09T01:28:24.209Z,3.17
2019-02-09T01:31:00.596Z,3.20
2019-02-09T01:33:37.086Z,3.17
2019-02-09T01:36:12.132Z,3.14
2019-02-09T01:38:50.147Z,3.14
2019-02-09T01:41:27.378Z,3.13
2019-02-09T01:44:03.684Z,3.13
2019-02-09T01:46:39.702Z,3.13
2019-02-09T01:49:16.038Z,3.15
2019-02-09T01:51:51.179Z,3.19
2019-02-09T01:54:27.527Z,3.20
2019-02-09T01:57:04.085Z,3.22
2019-02-09T01:59:39.951Z,3.21
2019-02-09T02:02:16.855Z,3.21
2019-02-09T02:04:52.854Z,3.20
2019-02-09T02:07:29.067Z,3.20
2019-02-09T02:10:06.777Z,3.20
2019-02-09T02:12:43.766Z,3.22
2019-02-09T02:15:22.440Z,3.19
2019-02-09T02:17:58.706Z,3.17
2019-02-09T02:20:36.953Z,3.16
2019-02-09T02:23:12.329Z,3.16
2019-02-09T02:25:49.144Z,3.15
2019-02-09T02:28:24.485Z,3.15
2019-02-09T02:30:59.743Z,3.17
2019-02-09T02:33:34.951Z,3.19
2019-02-09T02:36:10.521Z,3.20
2019-02-09T02:38:46.373Z,3.21
2019-02-09T02:41:22.006Z,3.23
2019-02-09T02:43:58.103Z,3.25
2019-02-09T02:46:33.830Z,3.25
2019-02-09T02:49:09.752Z,3.25
2019-02-09T02:51:47.778Z,3.27
2019-02-09T02:54:22.468Z,3.30
2019-02-09T02:57:00.409Z,3.32
2019-02-09T02:59:36.916Z,3.30
2019-02-09T03:02:14.080Z,3.32
2019-02-09T03:04:51.896Z,3.33
2019-02-09T03:07:28.673Z,3.36
2019-02-09T03:10:07.149Z,3.35
2019-02-09T03:12:43.126Z,3.40
2019-02-09T03:15:28.088Z,3.41
2019-02-09T03:18:04.448Z,3.39
2019-02-09T03:20:40.817Z,3.38
2019-02-09T03:23:16.130Z,3.38
2019-02-09T03:25:50.744Z,3.42
2019-02-09T03:28:25.304Z,3.45
2019-02-09T03:31:01.388Z,3.48
2019-02-09T03:33:36.912Z,3.51
2019-02-09T03:36:12.498Z,3.49
2019-02-09T03:38:48.634Z,3.51
2019-02-09T03:41:26.018Z,3.56
2019-02-09T03:44:01.596Z,3.59
2019-02-09T03:46:36.926Z,3.62
2019-02-09T03:49:12.034Z,3.61
2019-02-09T03:51:47.280Z,3.64
2019-02-09T03:54:23.628Z,3.68
2019-02-09T03:56:59.850Z,3.69
2019-02-09T03:59:35.271Z,3.71
2019-02-09T04:02:11.387Z,3.73
2019-02-09T04:04:49.116Z,3.73
2019-02-09T04:07:27.022Z,3.75
2019-02-09T04:10:02.253Z,3.77
2019-02-09T04:12:38.456Z,3.78
2019-02-09T04:15:20.855Z,3.80
2019-02-09T04:17:56.968Z,3.80
2019-02-09T04:20:31.642Z,3.81
2019-02-09T04:23:07.261Z,3.84
2019-02-09T04:25:44.974Z,3.84
2019-02-09T04:28:21.934Z,3.86
2019-02-09T04:31:06.194Z,3.89
2019-02-09T04:33:37.815Z,3.90
2019-02-09T04:36:14.498Z,3.92
2019-02-09T04:38:52.367Z,3.97
2019-02-09T04:41:30.051Z,4.01
2019-02-09T04:44:07.188Z,4.02
2019-02-09T04:46:44.309Z,4.05
2019-02-09T04:49:21.317Z,4.04
2019-02-09T04:51:57.407Z,4.05
2019-02-09T04:54:33.613Z,4.04
2019-02-09T04:57:10.494Z,4.02
2019-02-09T04:59:47.832Z,4.07
2019-02-09T05:02:23.001Z,4.11
2019-02-09T05:04:58.253Z,4.12
2019-02-09T05:07:33.887Z,4.13
2019-02-09T05:10:11.084Z,4.14
2019-02-09T05:12:46.679Z,4.13
2019-02-09T05:15:23.419Z,4.14
2019-02-09T05:17:59.904Z,4.16
2019-02-09T05:20:35.737Z,4.18
2019-02-09T05:23:10.958Z,4.19
2019-02-09T05:25:47.431Z,4.19
2019-02-09T05:28:22.684Z,4.21
2019-02-09T05:30:58.048Z,4.24
2019-02-09T05:33:32.736Z,4.25
2019-02-09T05:36:09.046Z,4.24
2019-02-09T05:38:44.278Z,4.26
2019-02-09T05:41:19.626Z,4.23
2019-02-09T05:43:54.843Z,4.25
2019-02-09T05:46:29.987Z,4.28
2019-02-09T05:49:05.118Z,4.26
2019-02-09T05:51:41.541Z,4.27
2019-02-09T05:54:16.604Z,4.29
2019-02-09T05:56:53.278Z,4.30
2019-02-09T05:59:29.990Z,4.32
2019-02-09T06:02:06.447Z,4.32
2019-02-09T06:04:41.699Z,4.32
2019-02-09T06:07:16.967Z,4.36
2019-02-09T06:09:52.260Z,4.36
2019-02-09T06:12:28.051Z,4.35
2019-02-09T06:15:04.490Z,4.37
2019-02-09T06:17:41.055Z,4.37
2019-02-09T06:20:23.607Z,4.37
2019-02-09T06:23:00.438Z,4.39
2019-02-09T06:25:38.361Z,4.42
2019-02-09T06:28:15.616Z,4.40
2019-02-09T06:30:51.486Z,4.42
2019-02-09T06:33:28.181Z,4.42
2019-02-09T06:36:04.608Z,4.44
2019-02-09T06:38:41.636Z,4.48
2019-02-09T06:41:20.287Z,4.47
2019-02-09T06:43:56.373Z,4.53
2019-02-09T06:46:32.879Z,4.53
2019-02-09T06:49:09.763Z,4.57
2019-02-09T06:51:44.348Z,4.60
2019-02-09T06:54:20.368Z,4.63
2019-02-09T06:56:55.568Z,4.64
2019-02-09T06:59:31.265Z,4.66
2019-02-09T07:02:06.444Z,4.68
2019-02-09T07:04:39.431Z,4.70
2019-02-09T07:07:14.699Z,4.73
2019-02-09T07:09:48.145Z,4.76
2019-02-09T07:12:23.302Z,4.80
2019-02-09T07:14:56.976Z,4.83
2019-02-09T07:17:32.082Z,4.86
2019-02-09T07:20:08.571Z,4.88
2019-02-09T07:22:43.123Z,4.89
2019-02-09T07:25:18.443Z,4.91
2019-02-09T07:27:54.160Z,4.93
2019-02-09T07:30:30.230Z,4.94
2019-02-09T07:33:04.465Z,4.95
2019-02-09T07:35:38.735Z,4.98
2019-02-09T07:38:13.591Z,4.99
2019-02-09T07:40:48.379Z,5.01
2019-02-09T07:43:22.575Z,5.02
2019-02-09T07:45:57.697Z,5.06
2019-02-09T07:48:32.210Z,5.07
2019-02-09T07:51:07.056Z,5.07
2019-02-09T07:53:41.132Z,5.10
2019-02-09T07:56:16.669Z,5.13
2019-02-09T07:58:51.117Z,5.14
2019-02-09T08:01:25.879Z,5.16
2019-02-09T08:04:02.995Z,5.18
2019-02-09T08:06:37.040Z,5.20
2019-02-09T08:09:15.357Z,5.19
2019-02-09T08:11:49.522Z,5.22
2019-02-09T08:14:24.739Z,5.23
2019-02-09T08:16:58.443Z,5.26
2019-02-09T08:19:33.423Z,5.27
2019-02-09T08:22:07.124Z,5.30
2019-02-09T08:24:40.917Z,5.33
2019-02-09T08:27:15.181Z,5.41
2019-02-09T08:29:49.610Z,5.44
2019-02-09T08:32:23.324Z,5.49
2019-02-09T08:34:57.771Z,5.55
2019-02-09T08:37:32.835Z,5.58
2019-02-09T08:40:07.487Z,5.64
2019-02-09T08:42:40.889Z,5.71
2019-02-09T08:45:18.417Z,5.81
2019-02-09T08:47:53.102Z,5.89
2019-02-09T08:50:43.383Z,5.98
2019-02-09T08:53:17.719Z,6.03
2019-02-09T08:55:51.553Z,6.09
2019-02-09T08:58:26.009Z,6.14
2019-02-09T09:01:02.747Z,6.17
2019-02-09T09:03:38.102Z,6.23
2019-02-09T09:06:13.488Z,6.28
2019-02-09T09:09:00.248Z,6.32
2019-02-09T09:11:35.240Z,6.37
2019-02-09T09:14:08.778Z,6.40
2019-02-09T09:16:41.638Z,6.42
2019-02-09T09:19:14.693Z,6.45
2019-02-09T09:21:49.533Z,6.48
2019-02-09T09:24:24.937Z,6.49
2019-02-09T09:27:00.283Z,6.52
2019-02-09T09:29:36.206Z,6.51
2019-02-09T09:32:11.129Z,6.53
2019-02-09T09:34:45.230Z,6.54
2019-02-09T09:37:19.475Z,6.60
2019-02-09T09:39:55.671Z,6.64
2019-02-09T09:42:35.378Z,6.70
2019-02-09T09:45:12.433Z,6.75
2019-02-09T09:47:47.368Z,6.78
2019-02-09T09:50:22.480Z,6.81
2019-02-09T09:52:55.906Z,6.80
2019-02-09T09:55:29.191Z,6.77
2019-02-09T09:58:03.506Z,6.72
2019-02-09T10:00:38.620Z,6.69
2019-02-09T10:03:13.261Z,6.66
2019-02-09T10:05:46.619Z,6.66
2019-02-09T10:08:20.932Z,6.61
2019-02-09T10:10:55.018Z,6.59
2019-02-09T10:13:30.860Z,6.59
2019-02-09T10:16:05.632Z,6.58
2019-02-09T10:18:40.443Z,6.60
2019-02-09T10:21:13.802Z,6.63
2019-02-09T10:23:48.731Z,6.71
2019-02-09T10:26:23.795Z,6.79
2019-02-09T10:28:57.612Z,6.85
2019-02-09T10:31:31.572Z,6.90
2019-02-09T10:34:05.748Z,6.95
2019-02-09T10:36:40.073Z,7.04
2019-02-09T10:39:14.392Z,7.12
2019-02-09T10:41:47.951Z,7.15
2019-02-09T10:44:23.090Z,7.16
2019-02-09T10:47:00.462Z,7.23
2019-02-09T10:49:35.017Z,7.23
2019-02-09T10:52:08.989Z,7.27
2019-02-09T10:54:46.949Z,7.28
2019-02-09T10:57:21.484Z,7.27
2019-02-09T10:59:56.437Z,7.28
2019-02-09T11:02:29.936Z,7.33
2019-02-09T11:05:05.177Z,7.37
2019-02-09T11:07:38.964Z,7.38
2019-02-09T11:10:16.173Z,7.43
2019-02-09T11:12:52.053Z,7.52
2019-02-09T11:15:26.517Z,7.56
2019-02-09T11:18:00.860Z,7.64
2019-02-09T11:20:36.059Z,7.65
2019-02-09T11:23:10.420Z,7.69
2019-02-09T11:25:47.393Z,7.76
2019-02-09T11:28:22.716Z,7.88
2019-02-09T11:30:58.497Z,8.01
2019-02-09T11:33:33.301Z,8.09
2019-02-09T11:36:08.804Z,8.17
2019-02-09T11:38:44.270Z,8.32
2019-02-09T11:41:19.569Z,8.45
2019-02-09T11:43:53.893Z,8.60
2019-02-09T11:46:29.004Z,8.74
2019-02-09T11:49:04.336Z,8.81
2019-02-09T11:51:42.647Z,8.98
2019-02-09T11:54:17.235Z,9.14
2019-02-09T11:56:51.208Z,9.74
2019-02-09T11:59:25.286Z,10.36
2019-02-09T12:02:01.021Z,10.79
2019-02-09T12:04:36.308Z,11.25
2019-02-09T12:07:09.790Z,11.69
2019-02-09T12:09:44.023Z,12.12
2019-02-09T12:12:16.664Z,12.36
2019-02-09T12:14:50.053Z,12.57
2019-02-09T12:17:22.174Z,13.03
2019-02-09T12:19:55.081Z,13.30
2019-02-09T12:22:28.083Z,13.25
2019-02-09T12:25:02.334Z,13.49
2019-02-09T12:27:35.420Z,13.48
2019-02-09T12:30:11.140Z,13.76
2019-02-09T12:32:46.863Z,13.95
2019-02-09T12:35:19.760Z,14.33
2019-02-09T12:37:52.854Z,14.78
2019-02-09T12:40:30.826Z,14.99
2019-02-09T12:43:03.730Z,15.12
2019-02-09T12:45:37.653Z,15.19
2019-02-09T12:48:10.899Z,15.22
2019-02-09T12:50:43.877Z,15.28
2019-02-09T12:53:15.965Z,15.02
2019-02-09T12:55:48.932Z,15.23
2019-02-09T12:58:23.378Z,15.47
2019-02-09T13:00:56.365Z,15.61
2019-02-09T13:03:31.200Z,15.81
2019-02-09T13:06:04.448Z,15.81
2019-02-09T13:08:37.345Z,16.08
2019-02-09T13:11:11.289Z,15.87
2019-02-09T13:13:45.108Z,15.67
2019-02-09T13:16:19.277Z,15.15
2019-02-09T13:18:52.696Z,14.92
2019-02-09T13:21:26.356Z,14.43
2019-02-09T13:24:00.273Z,14.86
2019-02-09T13:26:34.412Z,14.45
2019-02-09T13:29:08.296Z,13.91
2019-02-09T13:31:42.529Z,13.72
2019-02-09T13:34:16.227Z,13.70
2019-02-09T13:36:50.546Z,13.88
2019-02-09T13:39:24.790Z,13.90
2019-02-09T13:41:58.569Z,13.44
2019-02-09T13:44:32.327Z,13.50
2019-02-09T13:47:06.161Z,13.55
2019-02-09T13:49:39.998Z,13.70
2019-02-09T13:52:14.235Z,13.87
2019-02-09T13:54:48.012Z,13.89
2019-02-09T13:57:21.600Z,14.07
2019-02-09T13:59:54.143Z,14.23
2019-02-09T14:02:27.651Z,14.47
2019-02-09T14:05:00.982Z,14.44
2019-02-09T14:07:33.507Z,14.61
2019-02-09T14:10:06.629Z,14.57
2019-02-09T14:12:39.805Z,14.72
2019-02-09T14:15:20.414Z,14.64
2019-02-09T14:17:53.819Z,14.47
2019-02-09T14:20:27.950Z,14.49
2019-02-09T14:23:02.139Z,14.41
2019-02-09T14:25:58.974Z,14.65
2019-02-09T14:28:32.086Z,14.79
2019-02-09T14:31:04.984Z,14.17
2019-02-09T14:33:40.089Z,13.74
2019-02-09T14:36:15.056Z,13.47
2019-02-09T14:38:50.059Z,13.19
2019-02-09T14:41:25.295Z,12.86
2019-02-09T14:44:00.751Z,12.57
2019-02-09T14:46:35.593Z,12.11
2019-02-09T14:49:13.279Z,11.84
2019-02-09T14:51:51.107Z,11.45
2019-02-09T14:54:25.112Z,11.01
2019-02-09T14:56:59.092Z,10.86
2019-02-09T14:59:33.829Z,10.69
2019-02-09T15:02:08.090Z,10.62
2019-02-09T15:04:42.096Z,10.76
2019-02-09T15:07:17.021Z,11.12
2019-02-09T15:09:52.022Z,11.20
2019-02-09T15:12:25.966Z,11.19
2019-02-09T15:15:00.378Z,10.97
2019-02-09T15:17:34.800Z,10.84
2019-02-09T15:20:14.227Z,10.71
2019-02-09T15:22:48.543Z,10.58
2019-02-09T15:25:23.596Z,10.51
2019-02-09T15:27:59.649Z,10.33
2019-02-09T15:30:35.653Z,10.25
2019-02-09T15:33:09.508Z,10.03
2019-02-09T15:35:44.208Z,9.95
2019-02-09T15:38:21.170Z,9.83
2019-02-09T15:40:56.522Z,9.71
2019-02-09T15:43:31.019Z,9.63
2019-02-09T15:46:05.135Z,9.55
2019-02-09T15:48:39.029Z,9.51
2019-02-09T15:51:12.467Z,9.36
2019-02-09T15:53:47.219Z,9.17
2019-02-09T15:56:21.839Z,8.99
2019-02-09T15:58:57.128Z,8.97
2019-02-09T16:01:31.590Z,8.91
2019-02-09T16:04:05.937Z,8.84
2019-02-09T16:06:41.348Z,8.79
2019-02-09T16:09:15.552Z,8.75
2019-02-09T16:11:53.203Z,8.71
2019-02-09T16:14:29.210Z,8.66
2019-02-09T16:17:03.557Z,8.61
2019-02-09T16:19:37.471Z,8.60
2019-02-09T16:22:11.480Z,8.51
2019-02-09T16:24:45.416Z,8.46
2019-02-09T16:27:19.289Z,8.40
2019-02-09T16:29:53.646Z,8.37
2019-02-09T16:32:27.504Z,8.28
2019-02-09T16:35:01.339Z,8.22
2019-02-09T16:37:36.289Z,8.13
2019-02-09T16:40:14.210Z,8.04
2019-02-09T16:42:49.841Z,7.98
2019-02-09T16:45:32.682Z,7.97
2019-02-09T16:48:06.552Z,7.92
2019-02-09T16:50:41.972Z,7.87
2019-02-09T16:53:16.203Z,7.82
2019-02-09T16:55:50.029Z,7.76
2019-02-09T16:58:25.424Z,7.74
2019-02-09T17:00:59.893Z,7.71
2019-02-09T17:03:34.194Z,7.72
2019-02-09T17:06:08.274Z,7.68
2019-02-09T17:08:43.718Z,7.68
2019-02-09T17:11:18.981Z,7.64
2019-02-09T17:13:53.186Z,7.54
2019-02-09T17:16:27.445Z,7.46
2019-02-09T17:19:02.137Z,7.41
2019-02-09T17:21:36.605Z,7.32
2019-02-09T17:24:10.298Z,7.28
2019-02-09T17:26:43.961Z,7.28
2019-02-09T17:29:18.305Z,7.23
2019-02-09T17:31:53.901Z,7.21
2019-02-09T17:34:29.872Z,7.14
2019-02-09T17:37:05.285Z,7.09
2019-02-09T17:39:39.924Z,7.09
2019-02-09T17:42:14.506Z,7.04
2019-02-09T17:44:49.643Z,7.00
2019-02-09T17:47:24.817Z,6.94
2019-02-09T17:49:59.108Z,6.93
2019-02-09T17:52:34.171Z,6.95
2019-02-09T17:55:09.065Z,6.95
2019-02-09T17:57:43.390Z,6.97
2019-02-09T18:00:33.593Z,6.96
2019-02-09T18:03:07.750Z,6.90
2019-02-09T18:05:42.103Z,6.80
2019-02-09T18:08:16.575Z,6.77
2019-02-09T18:10:50.602Z,6.74
2019-02-09T18:13:24.488Z,6.73
2019-02-09T18:15:58.596Z,6.73
2019-02-09T18:18:32.961Z,6.73
2019-02-09T18:21:08.350Z,6.74
2019-02-09T18:23:42.728Z,6.73
2019-02-09T18:26:17.758Z,6.70
2019-02-09T18:28:51.647Z,6.66
2019-02-09T18:31:25.170Z,6.65
2019-02-09T18:33:59.197Z,6.64
2019-02-09T18:36:34.441Z,6.64
2019-02-09T18:39:14.714Z,6.63
2019-02-09T18:41:49.620Z,6.60
2019-02-09T18:44:23.444Z,6.58
2019-02-09T18:46:57.380Z,6.56
2019-02-09T18:49:31.233Z,6.55
2019-02-09T18:52:05.879Z,6.52
2019-02-09T18:54:39.218Z,6.50
2019-02-09T18:57:13.640Z,6.36
2019-02-09T18:59:46.720Z,6.30
2019-02-09T19:02:22.159Z,6.29
2019-02-09T19:05:03.978Z,6.24
2019-02-09T19:07:33.884Z,6.17
2019-02-09T19:10:13.179Z,6.05
2019-02-09T19:12:47.654Z,6.04
2019-02-09T19:15:22.675Z,6.02
2019-02-09T19:17:57.562Z,6.00
2019-02-09T19:20:37.423Z,5.96
2019-02-09T19:23:10.990Z,5.85
2019-02-09T19:25:45.641Z,5.83
2019-02-09T19:28:19.373Z,5.85
2019-02-09T19:30:52.831Z,5.85
2019-02-09T19:33:27.512Z,5.81
2019-02-09T19:36:02.804Z,5.73
2019-02-09T19:38:37.692Z,5.72
2019-02-09T19:41:12.073Z,5.71
2019-02-09T19:43:45.550Z,5.71
2019-02-09T19:46:19.192Z,5.69
2019-02-09T19:48:51.391Z,5.70
2019-02-09T19:51:25.935Z,5.73
2019-02-09T19:53:58.941Z,5.73
2019-02-09T19:56:32.634Z,5.73
2019-02-09T19:59:06.562Z,5.74
2019-02-09T20:01:40.385Z,5.68
2019-02-09T20:04:14.505Z,5.69
2019-02-09T20:06:48.658Z,5.71
2019-02-09T20:09:22.123Z,5.76
2019-02-09T20:11:57.084Z,5.80
2019-02-09T20:14:30.830Z,5.85
2019-02-09T20:17:04.231Z,5.86
2019-02-09T20:19:39.389Z,5.91
2019-02-09T20:22:12.566Z,5.93
2019-02-09T20:24:45.841Z,5.95
2019-02-09T20:27:18.980Z,6.04
2019-02-09T20:29:52.492Z,6.09
2019-02-09T20:32:24.636Z,6.12
2019-02-09T20:34:57.483Z,6.12
2019-02-09T20:37:31.904Z,6.13
2019-02-09T20:40:03.935Z,6.13
2019-02-09T20:42:36.961Z,6.12
2019-02-09T20:45:11.498Z,6.09
2019-02-09T20:47:48.752Z,6.08
2019-02-09T20:50:19.230Z,6.09
2019-02-09T20:52:53.089Z,6.08
2019-02-09T20:55:26.383Z,6.06
2019-02-09T20:57:59.887Z,6.08
2019-02-09T21:00:32.587Z,6.06
2019-02-09T21:03:06.374Z,6.01
2019-02-09T21:05:39.629Z,5.98
2019-02-09T21:08:12.188Z,5.96
2019-02-09T21:10:45.479Z,5.94
2019-02-09T21:13:18.455Z,5.92
2019-02-09T21:15:52.381Z,5.92
2019-02-09T21:18:25.215Z,5.92
2019-02-09T21:20:59.483Z,5.93
2019-02-09T21:23:32.443Z,5.92
2019-02-09T21:26:05.930Z,5.92
2019-02-09T21:28:38.721Z,5.95
2019-02-09T21:31:12.733Z,5.94
2019-02-09T21:33:45.673Z,5.95
2019-02-09T21:36:21.488Z,5.92
2019-02-09T21:38:54.897Z,5.93
2019-02-09T21:41:30.156Z,5.90
2019-02-09T21:44:05.306Z,5.88
2019-02-09T21:46:41.453Z,5.86
2019-02-09T21:49:17.441Z,5.89
2019-02-09T21:51:52.529Z,5.86
2019-02-09T21:54:30.243Z,5.85
2019-02-09T21:57:06.971Z,5.83
2019-02-09T21:59:42.883Z,5.82
2019-02-09T22:02:18.239Z,5.79
2019-02-09T22:04:52.473Z,5.76
2019-02-09T22:07:26.943Z,5.75
2019-02-09T22:10:01.318Z,5.73
2019-02-09T22:12:35.155Z,5.72
2019-02-09T22:15:10.229Z,5.69
2019-02-09T22:17:46.003Z,5.68
2019-02-09T22:20:21.521Z,5.69
2019-02-09T22:22:56.640Z,5.68
2019-02-09T22:25:29.745Z,5.64
2019-02-09T22:28:04.854Z,5.64
2019-02-09T22:30:39.546Z,5.63
2019-02-09T22:33:14.212Z,5.64
2019-02-09T22:35:50.538Z,5.61
2019-02-09T22:38:24.239Z,5.60
2019-02-09T22:40:58.711Z,5.56
2019-02-09T22:43:35.546Z,5.55
2019-02-09T22:46:12.175Z,5.57
2019-02-09T22:48:50.288Z,5.52
2019-02-09T22:51:27.672Z,5.50
2019-02-09T22:54:04.025Z,5.50
2019-02-09T22:56:39.383Z,5.48
2019-02-09T22:59:15.905Z,5.49
2019-02-09T23:01:56.337Z,5.42
2019-02-09T23:05:18.617Z,5.42
2019-02-09T23:07:55.007Z,5.41
2019-02-09T23:10:29.636Z,5.41
2019-02-09T23:13:05.779Z,5.40
2019-02-09T23:15:41.465Z,5.41
2019-02-09T23:18:16.981Z,5.41
2019-02-09T23:20:52.056Z,5.40
2019-02-09T23:23:27.931Z,5.40
2019-02-09T23:26:03.483Z,5.41
2019-02-09T23:28:38.592Z,5.42
2019-02-09T23:31:13.956Z,5.37
2019-02-09T23:33:49.416Z,5.34
2019-02-09T23:36:24.803Z,5.33
2019-02-09T23:39:00.068Z,5.31
2019-02-09T23:41:35.944Z,5.30
2019-02-09T23:44:11.078Z,5.32
2019-02-09T23:46:46.428Z,5.30
2019-02-09T23:49:21.105Z,5.27
2019-02-09T23:51:55.530Z,5.25
2019-02-09T23:54:31.422Z,5.23
2019-02-09T23:57:06.543Z,5.21
2019-02-09T23:59:41.153Z,5.22
